Morvin, Alabama
Current Conditions -  °F | °C
As of 9:55 AM on Thursday 29 Jan 2015 (Local Time) from KDYA Reporting Station
Clear Clear  
Wind Chill: 57°   Ceiling: Unl
Heat Index: 57°   Visibility: 10mi
Dew Point: 42°   Wind: 6mph
Humidity: 57%   Direction: 170°S
Pressure: 30.25"   Gusts: NA
Location:  31.99°N, 87.99°W
Report Text: KDYA 291555Z AUTO 17005KT 10SM CLR 14/06 A3025 RMK AO2 T01410058
Loading
Personal Weather Stations






























Interactive Weather Map New forecast layout! Learn more

10-Day Weather Forecast

Advertisements
Track Severe Weather on mobile